createdAt,value
2022-11-02T00:01:57.937Z,11.60
2022-11-02T00:04:28.512Z,5.60
2022-11-02T00:06:59.366Z,12.30
2022-11-02T00:09:29.790Z,9.00
2022-11-02T00:12:00.216Z,8.00
2022-11-02T00:14:30.577Z,11.20
2022-11-02T00:17:01.118Z,5.60
2022-11-02T00:19:32.015Z,5.60
2022-11-02T00:22:02.972Z,10.00
2022-11-02T00:24:34.941Z,8.90
2022-11-02T00:27:05.453Z,7.10
2022-11-02T00:29:36.699Z,8.80
2022-11-02T00:32:07.705Z,4.60
2022-11-02T00:34:38.175Z,9.70
2022-11-02T00:37:08.994Z,6.80
2022-11-02T00:39:39.771Z,4.70
2022-11-02T00:42:10.296Z,9.60
2022-11-02T00:44:41.116Z,8.90
2022-11-02T00:53:37.442Z,6.70
2022-11-02T00:56:09.493Z,5.80
2022-11-02T00:58:39.994Z,7.90
2022-11-02T01:01:11.651Z,8.00
2022-11-02T01:03:42.153Z,7.80
2022-11-02T01:06:15.096Z,8.60
2022-11-02T01:11:16.680Z,8.40
2022-11-02T01:13:48.428Z,8.40
2022-11-02T01:16:21.534Z,8.10
2022-11-02T01:18:55.421Z,8.70
2022-11-02T01:21:26.310Z,5.00
2022-11-02T01:23:57.691Z,10.70
2022-11-02T01:26:28.188Z,9.30
2022-11-02T01:28:58.673Z,7.30
2022-11-02T01:31:29.160Z,4.90
2022-11-02T01:33:59.681Z,9.40
2022-11-02T01:36:30.231Z,4.80
2022-11-02T01:39:00.698Z,5.00
2022-11-02T01:41:31.455Z,6.50
2022-11-02T01:44:05.398Z,6.60
2022-11-02T01:46:40.906Z,4.90
2022-11-02T01:49:14.416Z,5.80
2022-11-02T01:51:47.889Z,8.10
2022-11-02T01:54:20.037Z,3.80
2022-11-02T01:56:53.711Z,8.30
2022-11-02T01:59:35.704Z,9.20
2022-11-02T02:02:10.349Z,9.50
2022-11-02T02:04:41.028Z,7.50
2022-11-02T02:07:11.933Z,7.40
2022-11-02T02:09:47.163Z,5.50
2022-11-02T02:12:21.225Z,7.10
2022-11-02T02:14:52.990Z,9.30
2022-11-02T02:17:32.991Z,7.70
2022-11-02T02:20:07.258Z,5.10
2022-11-02T02:23:19.872Z,6.80
2022-11-02T02:26:18.819Z,4.90
2022-11-02T02:28:52.300Z,7.80
2022-11-02T02:31:27.169Z,9.40
2022-11-02T02:34:02.154Z,5.70
2022-11-02T02:36:35.585Z,10.50
2022-11-02T02:39:10.479Z,10.00
2022-11-02T02:41:42.140Z,6.60
2022-11-02T02:44:14.478Z,12.10
2022-11-02T02:46:49.061Z,8.60
2022-11-02T02:49:23.505Z,10.40
2022-11-02T02:51:54.201Z,9.30
2022-11-02T02:54:27.077Z,10.70
2022-11-02T02:57:01.308Z,11.00
2022-11-02T02:59:35.164Z,11.30
2022-11-02T03:02:09.826Z,10.50
2022-11-02T03:04:40.504Z,10.70
2022-11-02T03:07:15.952Z,8.70
2022-11-02T03:09:49.187Z,10.20
2022-11-02T03:12:29.131Z,10.60
2022-11-02T03:15:10.375Z,18.20
2022-11-02T03:17:50.839Z,10.60
2022-11-02T03:20:26.662Z,10.60
2022-11-02T03:23:06.574Z,11.40
2022-11-02T03:25:41.925Z,11.30
2022-11-02T03:28:17.591Z,12.90
2022-11-02T03:30:50.947Z,7.50
2022-11-02T03:33:25.238Z,10.10
2022-11-02T03:35:59.751Z,11.90
2022-11-02T03:38:35.966Z,11.70
2022-11-02T03:41:07.368Z,9.90
2022-11-02T03:43:39.387Z,6.70
2022-11-02T03:46:11.067Z,9.10
2022-11-02T03:48:44.009Z,10.70
2022-11-02T03:51:17.019Z,8.50
2022-11-02T03:53:50.848Z,9.50
2022-11-02T03:56:26.263Z,7.20
2022-11-02T03:58:57.163Z,8.50
2022-11-02T04:01:29.740Z,12.40
2022-11-02T04:04:00.812Z,6.40
2022-11-02T04:06:31.297Z,10.20
2022-11-02T04:09:03.867Z,5.70
2022-11-02T04:11:52.320Z,8.00
2022-11-02T04:14:41.420Z,8.70
2022-11-02T04:17:35.515Z,9.80
2022-11-02T04:20:10.584Z,8.40
2022-11-02T04:22:58.542Z,7.20
2022-11-02T04:25:29.275Z,4.70
2022-11-02T04:28:18.161Z,6.30
2022-11-02T04:30:58.664Z,9.10
2022-11-02T04:33:36.507Z,9.20
2022-11-02T04:36:14.945Z,5.90
2022-11-02T04:38:45.893Z,7.40
2022-11-02T04:41:45.847Z,10.40
2022-11-02T04:44:35.078Z,5.10
2022-11-02T04:47:12.041Z,12.80
2022-11-02T04:49:42.547Z,9.90
2022-11-02T04:52:15.535Z,5.70
2022-11-02T04:54:51.024Z,5.50
2022-11-02T04:57:21.856Z,8.80
2022-11-02T04:59:56.171Z,11.70
2022-11-02T05:02:26.824Z,7.40
2022-11-02T05:04:58.290Z,6.40
2022-11-02T05:07:29.633Z,7.30
2022-11-02T05:10:00.164Z,5.50
2022-11-02T05:12:31.337Z,8.30
2022-11-02T05:15:03.325Z,5.40
2022-11-02T05:17:33.897Z,7.40
2022-11-02T05:20:05.913Z,8.90
2022-11-02T05:22:36.469Z,11.40
2022-11-02T05:25:07.882Z,6.60
2022-11-02T05:27:40.086Z,7.70
2022-11-02T05:30:13.633Z,8.60
2022-11-02T05:32:44.389Z,5.90
2022-11-02T05:35:15.000Z,10.40
2022-11-02T05:37:46.704Z,11.50
2022-11-02T05:40:17.213Z,8.30
2022-11-02T05:42:47.823Z,8.40
2022-11-02T05:45:22.087Z,6.70
2022-11-02T05:47:54.175Z,10.10
2022-11-02T05:50:24.635Z,9.90
2022-11-02T05:52:56.728Z,6.30
2022-11-02T05:55:27.305Z,11.30
2022-11-02T05:57:58.326Z,6.20
2022-11-02T06:00:29.219Z,10.40
2022-11-02T06:02:59.988Z,9.30
2022-11-02T06:05:30.835Z,9.00
2022-11-02T06:08:02.621Z,7.10
2022-11-02T06:10:33.226Z,7.20
2022-11-02T06:13:05.171Z,7.90
2022-11-02T06:15:36.015Z,9.40
2022-11-02T06:18:07.840Z,8.70
2022-11-02T06:20:38.372Z,7.80
2022-11-02T06:23:09.178Z,14.10
2022-11-02T06:25:40.040Z,7.60
2022-11-02T06:28:10.445Z,8.80
2022-11-02T06:30:41.650Z,9.40
2022-11-02T06:33:12.405Z,6.90
2022-11-02T06:35:44.074Z,9.40
2022-11-02T06:38:14.861Z,8.60
2022-11-02T06:40:45.692Z,6.70
2022-11-02T06:43:17.424Z,7.10
2022-11-02T06:45:48.385Z,8.30
2022-11-02T06:48:18.783Z,9.80
2022-11-02T06:50:49.172Z,10.10
2022-11-02T06:53:19.710Z,6.40
2022-11-02T06:55:55.120Z,11.70
2022-11-02T06:58:26.064Z,6.00
2022-11-02T07:01:01.780Z,5.20
2022-11-02T07:03:33.127Z,7.80
2022-11-02T07:06:03.758Z,10.90
2022-11-02T07:08:34.146Z,8.50
2022-11-02T07:11:04.984Z,5.40
2022-11-02T07:13:35.421Z,5.90
2022-11-02T07:16:06.140Z,6.10
2022-11-02T07:18:36.675Z,8.30
2022-11-02T07:21:10.496Z,6.90
2022-11-02T07:23:41.163Z,8.40
2022-11-02T07:26:11.774Z,8.80
2022-11-02T07:28:42.275Z,7.70
2022-11-02T07:31:12.626Z,3.10
2022-11-02T07:33:43.271Z,5.50
2022-11-02T07:36:13.956Z,9.00
2022-11-02T07:38:44.788Z,6.50
2022-11-02T07:41:15.256Z,7.30
2022-11-02T07:43:45.918Z,8.40
2022-11-02T07:46:28.585Z,5.70
2022-11-02T07:48:59.141Z,9.30
2022-11-02T07:51:30.868Z,7.00
2022-11-02T07:54:02.649Z,5.10
2022-11-02T07:56:33.193Z,5.00
2022-11-02T07:59:03.766Z,4.30
2022-11-02T08:01:34.257Z,9.20
2022-11-02T08:04:04.925Z,8.10
2022-11-02T08:06:37.000Z,7.10
2022-11-02T08:09:10.512Z,8.70
2022-11-02T08:11:41.167Z,5.90
2022-11-02T08:14:16.061Z,6.60
2022-11-02T08:16:48.144Z,6.60
2022-11-02T08:19:18.935Z,5.30
2022-11-02T08:21:50.131Z,6.40
2022-11-02T08:24:20.811Z,8.30
2022-11-02T08:26:53.953Z,7.50
2022-11-02T08:29:25.574Z,9.00
2022-11-02T08:31:56.381Z,6.80
2022-11-02T08:34:26.939Z,7.90
2022-11-02T08:36:58.231Z,9.90
2022-11-02T08:39:28.802Z,10.40
2022-11-02T08:41:59.285Z,5.60
2022-11-02T08:44:29.899Z,5.90
2022-11-02T08:47:02.150Z,7.30
2022-11-02T08:49:34.687Z,9.30
2022-11-02T08:52:05.429Z,8.70
2022-11-02T08:54:36.020Z,7.30
2022-11-02T08:57:06.621Z,10.90
2022-11-02T08:59:42.176Z,11.00
2022-11-02T09:02:12.989Z,6.40
2022-11-02T09:04:43.992Z,6.80
2022-11-02T09:07:14.589Z,11.30
2022-11-02T09:09:45.462Z,7.30
2022-11-02T09:12:17.661Z,7.70
2022-11-02T09:14:50.820Z,6.90
2022-11-02T09:17:21.431Z,6.90
2022-11-02T09:19:52.135Z,7.80
2022-11-02T09:22:22.715Z,6.60
2022-11-02T09:24:53.967Z,7.20
2022-11-02T09:27:25.352Z,11.40
2022-11-02T09:29:55.939Z,6.80
2022-11-02T09:32:26.539Z,6.20
2022-11-02T09:34:56.927Z,8.20
2022-11-02T09:37:32.096Z,8.90
2022-11-02T09:40:05.559Z,5.90
2022-11-02T09:42:51.849Z,4.70
2022-11-02T09:45:23.320Z,9.20
2022-11-02T09:50:51.565Z,6.40
2022-11-02T09:53:28.749Z,8.30
2022-11-02T09:56:03.839Z,7.20
2022-11-02T09:58:40.508Z,10.00
2022-11-02T10:01:24.822Z,7.10
2022-11-02T10:04:08.763Z,5.80
2022-11-02T10:06:43.658Z,5.80
2022-11-02T10:09:19.867Z,8.10
2022-11-02T10:11:59.611Z,6.20
2022-11-02T10:14:34.804Z,9.40
2022-11-02T10:17:12.867Z,7.50
2022-11-02T10:19:48.421Z,6.40
2022-11-02T10:22:21.037Z,5.20
2022-11-02T10:24:54.640Z,7.00
2022-11-02T10:27:30.945Z,7.50
2022-11-02T10:30:05.865Z,5.70
2022-11-02T10:32:40.946Z,8.90
2022-11-02T10:35:37.016Z,12.00
2022-11-02T10:38:22.805Z,7.40
2022-11-02T10:43:52.366Z,8.30
2022-11-02T10:46:39.810Z,5.90
2022-11-02T10:49:20.444Z,5.10
2022-11-02T10:51:53.156Z,7.70
2022-11-02T11:01:07.445Z,6.00
2022-11-02T11:03:56.743Z,5.80
2022-11-02T11:06:32.354Z,9.50
2022-11-02T11:09:16.112Z,4.90
2022-11-02T11:11:55.539Z,4.90
2022-11-02T11:20:30.813Z,5.20
2022-11-02T11:23:19.927Z,7.00
2022-11-02T11:26:02.223Z,9.40
2022-11-02T11:28:35.731Z,5.40
2022-11-02T11:31:14.369Z,5.80
2022-11-02T11:33:48.239Z,6.60
2022-11-02T11:36:26.978Z,10.00
2022-11-02T11:39:00.353Z,4.90
2022-11-02T11:41:31.549Z,5.30
2022-11-02T11:44:02.991Z,4.00
2022-11-02T11:46:43.932Z,7.10
2022-11-02T11:49:36.042Z,8.80
2022-11-02T11:52:20.170Z,4.80
2022-11-02T11:54:59.548Z,4.70
2022-11-02T11:57:32.448Z,6.90
2022-11-02T12:00:06.740Z,6.10
2022-11-02T12:02:44.271Z,6.80
2022-11-02T12:05:17.626Z,4.80
2022-11-02T12:10:44.151Z,4.40
2022-11-02T12:13:27.335Z,5.00
2022-11-02T12:16:08.596Z,6.00
2022-11-02T12:18:51.316Z,7.80
2022-11-02T12:21:35.234Z,4.90
2022-11-02T12:24:23.415Z,6.10
2022-11-02T12:27:03.183Z,5.60
2022-11-02T12:29:57.481Z,7.10
2022-11-02T12:32:42.106Z,6.40
2022-11-02T12:35:38.130Z,4.50
2022-11-02T12:38:29.651Z,4.30
2022-11-02T12:41:05.174Z,7.80
2022-11-02T12:43:43.250Z,5.60
2022-11-02T12:46:34.036Z,4.00
2022-11-02T12:49:25.978Z,4.00
2022-11-02T12:52:01.686Z,6.00
2022-11-02T12:54:41.733Z,10.20
2022-11-02T12:57:17.001Z,6.20
2022-11-02T12:59:49.498Z,5.50
2022-11-02T13:02:22.527Z,4.10
2022-11-02T13:04:55.828Z,6.50
2022-11-02T13:07:30.683Z,7.70
2022-11-02T13:10:06.549Z,3.40
2022-11-02T13:12:39.644Z,6.50
2022-11-02T13:15:16.773Z,6.40
2022-11-02T13:17:50.291Z,6.60
2022-11-02T13:20:23.298Z,5.20
2022-11-02T13:22:57.083Z,3.40
2022-11-02T13:25:31.418Z,4.90
2022-11-02T13:28:06.116Z,3.20
2022-11-02T13:30:37.288Z,7.90
2022-11-02T13:33:15.415Z,3.80
2022-11-02T13:35:46.280Z,6.70
2022-11-02T13:38:28.561Z,4.60
2022-11-02T13:41:09.172Z,6.60
2022-11-02T13:44:12.436Z,4.50
2022-11-02T13:46:59.080Z,5.90
2022-11-02T13:49:32.701Z,7.80
2022-11-02T13:52:07.447Z,4.40
2022-11-02T13:54:43.408Z,5.20
2022-11-02T13:57:30.021Z,8.90
2022-11-02T14:00:00.908Z,5.20
2022-11-02T14:02:35.005Z,4.40
2022-11-02T14:05:05.828Z,6.30
2022-11-02T14:07:40.226Z,5.30
2022-11-02T14:10:17.324Z,9.80
2022-11-02T14:12:48.682Z,4.50
2022-11-02T14:15:54.533Z,3.00
2022-11-02T14:18:34.659Z,5.90
2022-11-02T14:21:35.699Z,6.10
2022-11-02T14:24:46.219Z,3.40
2022-11-02T14:27:31.190Z,6.50
2022-11-02T14:30:01.938Z,7.30
2022-11-02T14:32:57.424Z,6.00
2022-11-02T14:35:38.885Z,5.20
2022-11-02T14:38:29.384Z,4.50
2022-11-02T14:41:05.417Z,5.50
2022-11-02T14:44:15.946Z,5.50
2022-11-02T14:46:57.824Z,8.40
2022-11-02T14:49:32.373Z,9.20
2022-11-02T14:52:05.803Z,5.10
2022-11-02T14:54:40.571Z,7.70
2022-11-02T14:57:21.650Z,5.40
2022-11-02T14:59:53.586Z,5.40
2022-11-02T15:02:28.402Z,7.00
2022-11-02T15:05:02.894Z,3.80
2022-11-02T15:07:36.982Z,5.60
2022-11-02T15:10:30.530Z,6.40
2022-11-02T15:13:31.747Z,6.40
2022-11-02T15:16:41.555Z,7.30
2022-11-02T15:19:40.118Z,6.60
2022-11-02T15:22:35.863Z,3.40
2022-11-02T15:25:10.923Z,6.80
2022-11-02T15:27:43.469Z,5.70
2022-11-02T15:30:17.981Z,4.80
2022-11-02T15:32:51.125Z,6.80
2022-11-02T15:35:23.978Z,6.30
2022-11-02T15:40:50.168Z,5.40
2022-11-02T15:43:35.298Z,13.50
2022-11-02T15:46:10.685Z,7.40
2022-11-02T15:48:47.476Z,10.40
2022-11-02T15:51:22.625Z,7.10
2022-11-02T15:54:07.274Z,7.90
2022-11-02T15:56:53.053Z,7.00
2022-11-02T15:59:37.732Z,6.20
2022-11-02T16:02:22.296Z,4.70
2022-11-02T16:04:54.688Z,7.00
2022-11-02T16:07:33.524Z,7.20
2022-11-02T16:10:22.791Z,9.00
2022-11-02T16:13:00.278Z,10.50
2022-11-02T16:15:31.523Z,11.60
2022-11-02T16:18:02.141Z,6.90
2022-11-02T16:20:35.899Z,4.90
2022-11-02T16:29:10.570Z,57.50
2022-11-02T16:31:41.527Z,44.20
2022-11-02T16:34:19.868Z,22.70
2022-11-02T16:36:50.814Z,21.00
2022-11-02T16:39:23.875Z,15.50
2022-11-02T16:41:57.332Z,12.90
2022-11-02T16:44:30.430Z,11.10
2022-11-02T16:47:15.139Z,11.40
2022-11-02T16:52:47.706Z,9.40
2022-11-02T16:58:35.560Z,8.00
2022-11-02T17:01:07.587Z,6.50
2022-11-02T17:03:38.286Z,10.00
2022-11-02T17:06:09.392Z,8.10
2022-11-02T17:08:41.183Z,12.30
2022-11-02T17:11:16.160Z,14.60
2022-11-02T17:13:50.117Z,9.40
2022-11-02T17:16:20.827Z,13.70
2022-11-02T17:18:51.355Z,9.40
2022-11-02T17:21:32.062Z,7.00
2022-11-02T17:24:03.103Z,9.10
2022-11-02T17:26:40.317Z,11.80
2022-11-02T17:29:33.399Z,5.80
2022-11-02T17:32:05.346Z,8.50
2022-11-02T17:34:36.146Z,10.70
2022-11-02T17:37:08.781Z,6.90
2022-11-02T17:39:39.283Z,11.10
2022-11-02T17:42:31.840Z,8.80
2022-11-02T17:45:24.300Z,9.90
2022-11-02T17:47:55.294Z,7.70
2022-11-02T17:50:27.024Z,11.40
2022-11-02T17:52:58.086Z,6.80
2022-11-02T17:55:29.671Z,6.90
2022-11-02T17:58:00.886Z,9.10
2022-11-02T18:00:31.583Z,9.10
2022-11-02T18:03:02.629Z,9.20
2022-11-02T18:05:36.837Z,13.20
2022-11-02T18:08:10.245Z,6.70
2022-11-02T18:10:42.483Z,7.20
2022-11-02T18:13:14.350Z,9.30
2022-11-02T18:15:45.058Z,8.90
2022-11-02T18:18:15.603Z,9.20
2022-11-02T18:20:46.192Z,12.80
2022-11-02T18:23:19.806Z,9.90
2022-11-02T18:25:52.813Z,8.50
2022-11-02T18:28:25.945Z,9.50
2022-11-02T18:30:56.433Z,8.20
2022-11-02T18:33:26.849Z,7.10
2022-11-02T18:36:04.493Z,9.70
2022-11-02T18:38:35.037Z,8.40
2022-11-02T18:41:22.716Z,6.50
2022-11-02T18:43:53.224Z,10.80
2022-11-02T18:46:26.617Z,11.10
2022-11-02T18:49:00.445Z,9.90
2022-11-02T18:51:31.250Z,10.00
2022-11-02T18:54:02.974Z,6.70
2022-11-02T18:56:33.492Z,9.20
2022-11-02T18:59:04.229Z,13.50
2022-11-02T19:01:34.846Z,7.30
2022-11-02T19:04:05.579Z,14.50
2022-11-02T19:06:53.871Z,7.60
2022-11-02T19:09:26.972Z,7.10
2022-11-02T19:12:02.250Z,9.30
2022-11-02T19:14:34.527Z,8.00
2022-11-02T19:17:05.745Z,5.00
2022-11-02T19:19:36.390Z,8.90
2022-11-02T19:22:06.782Z,9.00
2022-11-02T19:24:37.262Z,41.80
2022-11-02T19:27:44.500Z,24.70
2022-11-02T19:30:11.297Z,10.20
2022-11-02T19:32:41.766Z,5.60
2022-11-02T19:35:12.413Z,9.90
2022-11-02T19:37:42.869Z,9.60
2022-11-02T19:40:14.622Z,4.50
2022-11-02T19:42:47.314Z,7.20
2022-11-02T19:45:17.917Z,9.40
2022-11-02T19:47:51.081Z,7.50
2022-11-02T19:50:21.545Z,9.20
2022-11-02T19:52:52.213Z,4.50
2022-11-02T19:55:28.536Z,5.30
2022-11-02T19:58:01.991Z,5.20
2022-11-02T20:00:32.772Z,12.00
2022-11-02T20:03:05.120Z,7.90
2022-11-02T20:05:35.656Z,11.20
2022-11-02T20:08:06.450Z,9.90
2022-11-02T20:10:37.328Z,7.40
2022-11-02T20:13:07.932Z,6.50
2022-11-02T20:15:40.559Z,24.20
2022-11-02T20:18:19.573Z,42.80
2022-11-02T20:20:52.398Z,52.10
2022-11-02T20:23:23.043Z,28.00
2022-11-02T20:25:53.434Z,14.70
2022-11-02T20:28:23.860Z,10.50
2022-11-02T20:30:54.359Z,7.40
2022-11-02T20:33:25.122Z,17.20
2022-11-02T20:35:55.746Z,8.80
2022-11-02T20:38:26.552Z,10.90
2022-11-02T20:40:57.792Z,14.30
2022-11-02T20:43:28.163Z,16.00
2022-11-02T20:46:35.834Z,4.70
2022-11-02T20:48:55.442Z,10.60
2022-11-02T20:51:26.306Z,8.40
2022-11-02T20:53:56.762Z,10.20
2022-11-02T20:56:27.250Z,8.20
2022-11-02T20:58:57.983Z,8.80
2022-11-02T21:01:28.422Z,6.30
2022-11-02T21:03:59.046Z,8.70
2022-11-02T21:06:29.570Z,11.00
2022-11-02T21:09:00.523Z,6.40
2022-11-02T21:11:48.715Z,10.60
2022-11-02T21:14:19.270Z,9.30
2022-11-02T21:16:50.070Z,6.80
2022-11-02T21:19:20.537Z,9.60
2022-11-02T21:21:55.030Z,5.80
2022-11-02T21:24:28.798Z,7.90
2022-11-02T21:26:59.288Z,5.50
2022-11-02T21:29:29.730Z,7.80
2022-11-02T21:32:00.621Z,6.60
2022-11-02T21:34:31.052Z,9.30
2022-11-02T21:37:03.059Z,6.70
2022-11-02T21:39:33.572Z,7.90
2022-11-02T21:42:04.567Z,9.00
2022-11-02T21:44:35.109Z,11.40
2022-11-02T21:47:05.542Z,9.40
2022-11-02T21:49:36.035Z,8.90
2022-11-02T21:52:06.879Z,15.50
2022-11-02T21:54:37.514Z,22.10
2022-11-02T21:57:08.044Z,35.70
2022-11-02T21:59:38.567Z,15.80
2022-11-02T22:02:09.405Z,12.80
2022-11-02T22:04:40.057Z,11.60
2022-11-02T22:07:10.446Z,11.80
2022-11-02T22:09:41.127Z,11.10
2022-11-02T22:12:28.946Z,10.00
2022-11-02T22:14:59.573Z,17.20
2022-11-02T22:17:49.236Z,11.70
2022-11-02T22:20:20.414Z,15.00
2022-11-02T22:22:50.778Z,14.90
2022-11-02T22:25:21.290Z,33.00
2022-11-02T22:27:52.421Z,34.30
2022-11-02T22:30:24.453Z,19.10
2022-11-02T22:32:54.855Z,22.70
2022-11-02T22:35:25.387Z,21.70
2022-11-02T22:38:13.138Z,18.60
2022-11-02T22:40:43.914Z,16.20
2022-11-02T22:43:14.434Z,16.40
2022-11-02T22:45:44.984Z,19.20
2022-11-02T22:48:15.559Z,21.80
2022-11-02T22:50:47.642Z,15.10
2022-11-02T22:53:18.104Z,13.70
2022-11-02T22:55:53.528Z,12.50
2022-11-02T22:58:25.166Z,14.10
2022-11-02T23:00:56.812Z,9.70
2022-11-02T23:03:27.634Z,9.50
2022-11-02T23:05:58.219Z,11.30
2022-11-02T23:08:29.508Z,13.40
2022-11-02T23:11:18.308Z,11.00
2022-11-02T23:13:50.044Z,10.30
2022-11-02T23:16:22.443Z,12.00
2022-11-02T23:19:12.543Z,8.00
2022-11-02T23:21:45.124Z,11.60
2022-11-02T23:24:33.411Z,11.90
2022-11-02T23:27:04.935Z,12.10
2022-11-02T23:29:52.742Z,11.50
2022-11-02T23:32:28.852Z,8.40
2022-11-02T23:35:17.761Z,10.00
2022-11-02T23:37:48.763Z,11.00
2022-11-02T23:40:19.975Z,12.30
2022-11-02T23:42:50.418Z,13.50
2022-11-02T23:45:20.802Z,13.10
2022-11-02T23:48:01.344Z,12.60
2022-11-02T23:50:50.961Z,9.50
2022-11-02T23:53:41.120Z,10.80
2022-11-02T23:56:34.154Z,8.70
2022-11-02T23:59:07.506Z,13.50
